createdAt,value
2018-03-22T00:01:05.261Z,6.50
2018-03-22T00:03:31.132Z,6.03
2018-03-22T00:05:56.993Z,6.50
2018-03-22T00:08:22.910Z,6.77
2018-03-22T00:10:48.785Z,6.47
2018-03-22T00:13:14.634Z,7.37
2018-03-22T00:15:40.589Z,7.77
2018-03-22T00:18:06.468Z,7.20
2018-03-22T00:20:32.316Z,7.73
2018-03-22T00:22:58.300Z,8.30
2018-03-22T00:25:24.155Z,8.60
2018-03-22T00:27:50.653Z,8.27
2018-03-22T00:30:16.773Z,8.93
2018-03-22T00:32:43.116Z,9.37
2018-03-22T00:35:09.372Z,8.97
2018-03-22T00:37:35.698Z,7.83
2018-03-22T00:40:02.069Z,8.77
2018-03-22T00:42:28.418Z,9.23
2018-03-22T00:44:54.784Z,10.20
2018-03-22T00:47:21.147Z,9.57
2018-03-22T00:49:47.361Z,9.63
2018-03-22T00:52:13.707Z,10.23
2018-03-22T00:54:39.603Z,10.43
2018-03-22T00:57:05.488Z,9.40
2018-03-22T00:59:31.413Z,10.47
2018-03-22T01:01:57.257Z,9.50
2018-03-22T01:04:23.100Z,9.90
2018-03-22T01:06:49.000Z,9.70
2018-03-22T01:09:14.848Z,9.57
2018-03-22T01:11:40.698Z,9.70
2018-03-22T01:14:06.597Z,9.10
2018-03-22T01:16:32.452Z,9.13
2018-03-22T01:18:58.300Z,8.97
2018-03-22T01:21:24.205Z,9.83
2018-03-22T01:23:50.053Z,9.93
2018-03-22T01:26:15.965Z,9.77
2018-03-22T01:28:41.922Z,9.83
2018-03-22T01:31:07.768Z,10.47
2018-03-22T01:33:33.613Z,10.37
2018-03-22T01:35:59.504Z,9.33
2018-03-22T01:38:25.368Z,10.00
2018-03-22T01:40:51.234Z,10.53
2018-03-22T01:43:17.129Z,10.93
2018-03-22T01:45:43.022Z,11.93
2018-03-22T01:48:08.881Z,10.10
2018-03-22T01:50:34.769Z,10.07
2018-03-22T01:53:12.869Z,10.67
2018-03-22T01:55:38.863Z,10.27
2018-03-22T01:58:04.741Z,11.33
2018-03-22T02:00:30.605Z,10.87
2018-03-22T02:02:56.500Z,10.73
2018-03-22T02:05:22.348Z,9.53
2018-03-22T02:07:48.218Z,10.20
2018-03-22T02:10:14.109Z,10.90
2018-03-22T02:12:39.973Z,10.87
2018-03-22T02:15:05.858Z,11.27
2018-03-22T02:17:31.778Z,10.93
2018-03-22T02:19:57.620Z,10.87
2018-03-22T02:22:23.480Z,9.67
2018-03-22T02:24:49.380Z,10.93
2018-03-22T02:27:15.237Z,10.83
2018-03-22T02:29:41.189Z,10.90
2018-03-22T02:32:07.086Z,11.67
2018-03-22T02:34:32.940Z,10.90
2018-03-22T02:36:58.785Z,11.27
2018-03-22T02:39:24.711Z,11.37
2018-03-22T02:41:50.644Z,11.20
2018-03-22T02:44:16.512Z,10.80
2018-03-22T02:46:42.453Z,11.43
2018-03-22T02:49:08.304Z,11.97
2018-03-22T02:51:34.152Z,10.73
2018-03-22T02:54:00.285Z,12.30
2018-03-22T02:56:26.149Z,11.33
2018-03-22T02:58:51.997Z,12.20
2018-03-22T03:01:17.932Z,11.50
2018-03-22T03:03:43.801Z,11.63
2018-03-22T03:06:09.741Z,11.07
2018-03-22T03:08:35.936Z,11.27
2018-03-22T03:11:01.801Z,13.03
2018-03-22T03:13:27.653Z,12.13
2018-03-22T03:15:53.947Z,11.93
2018-03-22T03:18:19.889Z,12.83
2018-03-22T03:20:45.740Z,11.27
2018-03-22T03:23:11.654Z,12.00
2018-03-22T03:25:37.501Z,11.57
2018-03-22T03:28:03.358Z,12.20
2018-03-22T03:30:29.395Z,12.53
2018-03-22T03:32:55.246Z,12.53
2018-03-22T03:35:21.109Z,13.10
2018-03-22T03:37:47.013Z,12.43
2018-03-22T03:40:12.893Z,13.17
2018-03-22T03:42:38.844Z,13.87
2018-03-22T03:45:04.749Z,13.63
2018-03-22T03:47:30.592Z,11.90
2018-03-22T03:49:56.445Z,13.23
2018-03-22T03:52:22.593Z,12.73
2018-03-22T03:54:48.571Z,13.50
2018-03-22T03:57:14.425Z,13.23
2018-03-22T03:59:40.630Z,13.77
2018-03-22T04:02:06.492Z,13.23
2018-03-22T04:04:32.405Z,13.03
2018-03-22T04:06:58.692Z,13.27
2018-03-22T04:09:24.566Z,13.20
2018-03-22T04:11:50.412Z,12.10
2018-03-22T04:14:16.300Z,12.73
2018-03-22T04:16:42.272Z,13.80
2018-03-22T04:19:08.209Z,14.10
2018-03-22T04:21:34.113Z,13.37
2018-03-22T04:23:59.980Z,13.03
2018-03-22T04:26:25.824Z,12.60
2018-03-22T04:28:51.757Z,12.20
2018-03-22T04:31:17.702Z,12.00
2018-03-22T04:33:43.558Z,12.30
2018-03-22T04:36:09.464Z,12.60
2018-03-22T04:38:35.318Z,11.23
2018-03-22T04:41:01.216Z,11.13
2018-03-22T04:43:27.225Z,12.43
2018-03-22T04:45:53.091Z,11.47
2018-03-22T04:48:18.931Z,13.20
2018-03-22T04:50:44.838Z,12.07
2018-03-22T04:53:10.747Z,11.70
2018-03-22T04:55:36.680Z,11.27
2018-03-22T04:58:02.596Z,11.43
2018-03-22T05:00:28.474Z,11.97
2018-03-22T05:02:54.326Z,12.43
2018-03-22T05:05:20.613Z,12.07
2018-03-22T05:07:46.548Z,13.83
2018-03-22T05:10:12.450Z,12.30
2018-03-22T05:12:38.345Z,12.47
2018-03-22T05:15:04.218Z,12.10
2018-03-22T05:17:30.120Z,12.47
2018-03-22T05:19:56.108Z,13.53
2018-03-22T05:22:21.964Z,13.40
2018-03-22T05:24:47.823Z,14.23
2018-03-22T05:27:13.716Z,14.07
2018-03-22T05:29:39.629Z,14.23
2018-03-22T05:32:05.576Z,15.90
2018-03-22T05:34:31.481Z,15.53
2018-03-22T05:36:57.339Z,15.47
2018-03-22T05:39:23.214Z,15.67
2018-03-22T05:41:49.177Z,15.80
2018-03-22T05:44:15.264Z,16.50
2018-03-22T05:46:41.131Z,16.77
2018-03-22T05:49:07.038Z,16.73
2018-03-22T05:51:32.898Z,17.03
2018-03-22T05:53:59.655Z,17.87
2018-03-22T05:56:25.730Z,18.57
2018-03-22T05:58:51.596Z,18.33
2018-03-22T06:01:17.448Z,18.93
2018-03-22T06:03:43.418Z,19.57
2018-03-22T06:06:09.321Z,20.47
2018-03-22T06:08:35.236Z,21.00
2018-03-22T06:11:01.132Z,18.70
2018-03-22T06:13:26.980Z,19.77
2018-03-22T06:15:52.840Z,21.40
2018-03-22T06:18:18.792Z,20.27
2018-03-22T06:20:44.725Z,20.33
2018-03-22T06:23:10.572Z,19.10
2018-03-22T06:25:36.469Z,20.10
2018-03-22T06:28:02.330Z,18.00
2018-03-22T06:30:28.238Z,18.57
2018-03-22T06:32:54.503Z,20.10
2018-03-22T06:35:20.364Z,18.37
2018-03-22T06:37:46.221Z,19.53
2018-03-22T06:40:12.143Z,19.30
2018-03-22T06:42:38.036Z,16.73
2018-03-22T06:45:03.998Z,18.60
2018-03-22T06:47:29.905Z,17.87
2018-03-22T06:49:55.801Z,18.63
2018-03-22T06:52:21.659Z,18.00
2018-03-22T06:54:47.797Z,18.77
2018-03-22T06:57:13.762Z,18.50
2018-03-22T06:59:39.633Z,18.50
2018-03-22T07:02:05.525Z,18.20
2018-03-22T07:04:31.373Z,17.10
2018-03-22T07:06:57.334Z,18.23
2018-03-22T07:09:23.289Z,17.53
2018-03-22T07:11:49.136Z,16.33
2018-03-22T07:14:14.996Z,15.90
2018-03-22T07:16:40.906Z,15.83
2018-03-22T07:19:06.812Z,16.33
2018-03-22T07:21:32.747Z,16.30
2018-03-22T07:23:58.652Z,15.33
2018-03-22T07:26:24.501Z,15.63
2018-03-22T07:28:50.349Z,15.47
2018-03-22T07:31:16.321Z,14.50
2018-03-22T07:33:42.258Z,14.90
2018-03-22T07:36:08.154Z,15.23
2018-03-22T07:38:34.055Z,14.03
2018-03-22T07:40:59.926Z,12.90
2018-03-22T07:43:31.937Z,14.90
2018-03-22T07:45:57.925Z,14.23
2018-03-22T07:48:23.778Z,14.80
2018-03-22T07:50:49.625Z,14.47
2018-03-22T07:53:15.538Z,14.57
2018-03-22T07:55:41.453Z,13.70
2018-03-22T07:58:07.404Z,14.10
2018-03-22T08:00:33.294Z,12.97
2018-03-22T08:02:59.913Z,13.60
2018-03-22T08:05:25.772Z,12.17
2018-03-22T08:07:51.719Z,13.40
2018-03-22T08:10:17.653Z,12.33
2018-03-22T08:12:43.497Z,13.33
2018-03-22T08:15:09.412Z,13.13
2018-03-22T08:17:35.257Z,15.03
2018-03-22T08:20:01.158Z,13.20
2018-03-22T08:22:27.136Z,14.43
2018-03-22T08:24:52.978Z,14.73
2018-03-22T08:27:18.825Z,16.23
2018-03-22T08:29:44.837Z,15.97
2018-03-22T08:32:10.766Z,16.27
2018-03-22T08:34:36.740Z,18.10
2018-03-22T08:37:02.631Z,17.93
2018-03-22T08:39:28.492Z,16.57
2018-03-22T08:41:54.352Z,18.00
2018-03-22T08:44:20.309Z,18.90
2018-03-22T08:46:46.245Z,18.10
2018-03-22T08:49:12.096Z,17.37
2018-03-22T08:51:38.056Z,19.03
2018-03-22T08:54:04.130Z,19.10
2018-03-22T08:56:30.080Z,19.70
2018-03-22T08:58:56.058Z,20.63
2018-03-22T09:01:21.922Z,20.37
2018-03-22T09:03:47.765Z,20.77
2018-03-22T09:06:13.653Z,21.17
2018-03-22T09:08:39.579Z,19.83
2018-03-22T09:11:05.476Z,21.33
2018-03-22T09:13:31.416Z,21.83
2018-03-22T09:15:57.273Z,20.27
2018-03-22T09:18:23.122Z,22.23
2018-03-22T09:20:49.036Z,22.33
2018-03-22T09:23:14.886Z,24.33
2018-03-22T09:25:40.820Z,24.57
2018-03-22T09:28:06.706Z,24.07
2018-03-22T09:30:32.579Z,24.50
2018-03-22T09:32:58.493Z,25.90
2018-03-22T09:35:24.411Z,25.50
2018-03-22T09:37:50.261Z,25.77
2018-03-22T09:40:16.123Z,27.67
2018-03-22T09:42:42.024Z,28.57
2018-03-22T09:45:07.982Z,27.43
2018-03-22T09:47:33.928Z,28.20
2018-03-22T09:49:59.883Z,26.10
2018-03-22T09:52:25.791Z,28.10
2018-03-22T09:54:51.636Z,25.37
2018-03-22T09:57:17.537Z,28.27
2018-03-22T09:59:43.404Z,28.57
2018-03-22T10:02:09.244Z,30.13
2018-03-22T10:04:35.156Z,28.00
2018-03-22T10:07:01.094Z,29.70
2018-03-22T10:09:26.948Z,29.50
2018-03-22T10:11:53.174Z,29.87
2018-03-22T10:14:19.093Z,30.27
2018-03-22T10:16:44.961Z,31.13
2018-03-22T10:19:10.914Z,33.37
2018-03-22T10:21:36.756Z,32.83
2018-03-22T10:24:02.772Z,35.37
2018-03-22T10:26:28.955Z,34.57
2018-03-22T10:28:54.809Z,34.30
2018-03-22T10:31:20.669Z,34.90
2018-03-22T10:33:46.565Z,31.97
2018-03-22T10:36:12.426Z,30.67
2018-03-22T10:38:38.609Z,33.10
2018-03-22T10:41:04.549Z,31.73
2018-03-22T10:43:30.539Z,32.53
2018-03-22T10:45:56.409Z,34.80
2018-03-22T10:48:22.351Z,35.50
2018-03-22T10:50:48.255Z,35.10
2018-03-22T10:53:14.113Z,35.07
2018-03-22T10:55:40.102Z,36.13
2018-03-22T10:58:05.957Z,35.23
2018-03-22T11:00:37.776Z,35.70
2018-03-22T11:03:10.704Z,38.17
2018-03-22T11:05:36.564Z,38.60
2018-03-22T11:08:02.429Z,38.40
2018-03-22T11:10:28.317Z,39.63
2018-03-22T11:12:54.169Z,40.27
2018-03-22T11:15:21.025Z,39.93
2018-03-22T11:17:46.926Z,41.20
2018-03-22T11:20:12.788Z,39.40
2018-03-22T11:22:38.646Z,39.90
2018-03-22T11:25:04.550Z,43.33
2018-03-22T11:27:30.440Z,39.67
2018-03-22T11:29:56.277Z,40.53
2018-03-22T11:32:22.172Z,41.73
2018-03-22T11:34:48.082Z,41.07
2018-03-22T11:37:13.933Z,41.70
2018-03-22T11:39:39.817Z,41.23
2018-03-22T11:42:05.661Z,41.17
2018-03-22T11:47:13.711Z,42.63
2018-03-22T11:49:39.650Z,40.93
2018-03-22T11:52:05.596Z,40.93
2018-03-22T11:54:31.485Z,39.57
2018-03-22T11:56:57.345Z,39.93
2018-03-22T11:59:23.281Z,40.40
2018-03-22T12:01:49.219Z,40.77
2018-03-22T12:04:15.144Z,41.50
2018-03-22T12:06:41.000Z,41.73
2018-03-22T12:09:06.881Z,41.53
2018-03-22T12:11:32.729Z,39.60
2018-03-22T12:13:58.582Z,41.17
2018-03-22T12:16:24.559Z,40.13
2018-03-22T12:18:50.414Z,38.47
2018-03-22T12:21:16.265Z,43.27
2018-03-22T12:23:42.165Z,38.97
2018-03-22T12:26:08.021Z,42.40
2018-03-22T12:28:33.971Z,38.83
2018-03-22T12:30:59.867Z,41.10
2018-03-22T12:33:25.726Z,41.27
2018-03-22T12:35:51.658Z,39.83
2018-03-22T12:38:17.558Z,39.73
2018-03-22T12:40:43.513Z,39.43
2018-03-22T12:43:09.390Z,41.63
2018-03-22T12:45:35.326Z,40.47
2018-03-22T12:48:01.173Z,41.03
2018-03-22T12:50:27.058Z,39.63
2018-03-22T12:52:53.424Z,37.77
2018-03-22T12:55:19.288Z,38.37
2018-03-22T12:57:45.152Z,37.20
2018-03-22T13:00:11.048Z,36.80
2018-03-22T13:02:36.906Z,36.70
2018-03-22T13:05:02.882Z,35.80
2018-03-22T13:07:28.780Z,35.20
2018-03-22T13:09:54.628Z,35.57
2018-03-22T13:12:20.477Z,34.47
2018-03-22T13:14:46.394Z,37.73
2018-03-22T13:17:12.324Z,37.67
2018-03-22T13:19:38.169Z,36.43
2018-03-22T13:22:04.081Z,37.90
2018-03-22T13:24:29.946Z,36.97
2018-03-22T13:26:55.806Z,38.93
2018-03-22T13:29:21.781Z,36.20
2018-03-22T13:31:47.637Z,36.90
2018-03-22T13:34:13.480Z,37.53
2018-03-22T13:36:39.370Z,39.73
2018-03-22T13:39:05.235Z,38.03
2018-03-22T13:41:31.144Z,35.97
2018-03-22T13:43:57.097Z,35.17
2018-03-22T13:46:22.940Z,38.10
2018-03-22T13:48:48.789Z,38.77
2018-03-22T13:51:14.690Z,38.00
2018-03-22T13:53:40.654Z,37.17
2018-03-22T13:56:06.492Z,38.13
2018-03-22T13:58:32.694Z,37.07
2018-03-22T14:00:58.593Z,37.27
2018-03-22T14:03:24.450Z,37.33
2018-03-22T14:05:50.461Z,39.67
2018-03-22T14:08:16.316Z,38.67
2018-03-22T14:10:42.169Z,38.13
2018-03-22T14:13:08.050Z,36.17
2018-03-22T14:15:33.898Z,38.17
2018-03-22T14:17:59.745Z,38.30
2018-03-22T14:20:25.696Z,38.97
2018-03-22T14:22:51.537Z,40.03
2018-03-22T14:25:17.394Z,39.80
2018-03-22T14:27:43.306Z,38.37
2018-03-22T14:30:09.169Z,37.97
2018-03-22T14:32:35.037Z,37.90
2018-03-22T14:35:01.059Z,41.43
2018-03-22T14:37:27.006Z,38.27
2018-03-22T14:39:52.909Z,37.57
2018-03-22T14:42:19.304Z,38.30
2018-03-22T14:44:45.165Z,38.80
2018-03-22T14:47:11.163Z,36.93
2018-03-22T14:49:37.776Z,37.17
2018-03-22T14:52:03.656Z,38.63
2018-03-22T14:54:29.496Z,39.37
2018-03-22T14:56:55.470Z,41.27
2018-03-22T14:59:21.329Z,35.27
2018-03-22T15:01:47.188Z,35.07
2018-03-22T15:04:13.069Z,36.93
2018-03-22T15:06:38.913Z,35.13
2018-03-22T15:09:04.803Z,36.07
2018-03-22T15:11:30.680Z,35.90
2018-03-22T15:13:56.581Z,36.67
2018-03-22T15:16:22.433Z,38.80
2018-03-22T15:18:48.313Z,37.03
2018-03-22T15:21:14.157Z,36.47
2018-03-22T15:23:40.023Z,37.70
2018-03-22T15:26:05.915Z,37.77
2018-03-22T15:28:31.770Z,37.33
2018-03-22T15:30:57.701Z,38.10
2018-03-22T15:33:23.590Z,39.20
2018-03-22T15:35:49.444Z,37.40
2018-03-22T15:38:15.313Z,35.80
2018-03-22T15:40:41.192Z,38.87
2018-03-22T15:43:07.081Z,39.67
2018-03-22T15:45:32.981Z,38.07
2018-03-22T15:47:58.860Z,38.70
2018-03-22T15:50:24.746Z,37.93
2018-03-22T15:52:50.605Z,38.20
2018-03-22T15:55:16.971Z,38.27
2018-03-22T15:57:42.871Z,40.00
2018-03-22T16:00:08.777Z,39.17
2018-03-22T16:02:34.640Z,35.57
2018-03-22T16:05:00.548Z,37.73
2018-03-22T16:07:26.402Z,38.03
2018-03-22T16:09:52.293Z,39.80
2018-03-22T16:12:18.150Z,39.07
2018-03-22T16:14:44.432Z,39.87
2018-03-22T16:17:10.392Z,39.87
2018-03-22T16:19:36.254Z,39.53
2018-03-22T16:22:02.191Z,39.50
2018-03-22T16:24:31.404Z,40.63
2018-03-22T16:26:57.281Z,38.03
2018-03-22T16:29:23.128Z,40.63
2018-03-22T16:31:49.022Z,40.60
2018-03-22T16:34:14.903Z,41.10
2018-03-22T16:36:40.880Z,41.00
2018-03-22T16:39:06.836Z,39.03
2018-03-22T16:41:32.729Z,39.53
2018-03-22T16:43:58.588Z,40.50
2018-03-22T16:46:24.538Z,38.97
2018-03-22T16:48:50.390Z,38.70
2018-03-22T16:51:16.238Z,38.97
2018-03-22T16:53:42.133Z,39.10
2018-03-22T16:56:07.991Z,40.37
2018-03-22T16:58:33.936Z,38.07
2018-03-22T17:00:59.837Z,36.03
2018-03-22T17:03:25.691Z,39.00
2018-03-22T17:05:51.536Z,37.83
2018-03-22T17:08:17.441Z,39.67
2018-03-22T17:10:43.381Z,36.87
2018-03-22T17:13:09.219Z,37.10
2018-03-22T17:15:35.214Z,36.37
2018-03-22T17:18:01.073Z,37.13
2018-03-22T17:20:26.922Z,37.77
2018-03-22T17:22:52.890Z,39.60
2018-03-22T17:25:18.802Z,39.70
2018-03-22T17:27:45.120Z,40.63
2018-03-22T17:30:11.056Z,41.20
2018-03-22T17:32:36.919Z,40.00
2018-03-22T17:35:02.855Z,39.40
2018-03-22T17:37:28.745Z,40.53
2018-03-22T17:39:54.610Z,40.43
2018-03-22T17:42:20.453Z,39.80
2018-03-22T17:44:46.805Z,41.83
2018-03-22T17:47:12.784Z,39.53
2018-03-22T17:49:38.656Z,42.60
2018-03-22T17:52:04.630Z,41.63
2018-03-22T17:54:30.477Z,40.47
2018-03-22T17:56:56.312Z,41.30
2018-03-22T17:59:22.308Z,39.40
2018-03-22T18:01:48.174Z,41.47
2018-03-22T18:04:14.029Z,41.00
2018-03-22T18:06:40.037Z,42.53
2018-03-22T18:09:05.897Z,41.57
2018-03-22T18:11:31.872Z,41.60
2018-03-22T18:13:57.816Z,41.27
2018-03-22T18:16:23.700Z,41.10
2018-03-22T18:18:49.537Z,39.43
2018-03-22T18:21:15.418Z,42.40
2018-03-22T18:23:41.352Z,40.87
2018-03-22T18:26:07.193Z,42.73
2018-03-22T18:28:33.085Z,40.47
2018-03-22T18:30:58.933Z,39.53
2018-03-22T18:33:24.790Z,42.40
2018-03-22T18:35:50.773Z,41.23
2018-03-22T18:38:16.627Z,40.57
2018-03-22T18:40:42.544Z,41.07
2018-03-22T18:43:08.446Z,40.00
2018-03-22T18:45:34.644Z,40.83
2018-03-22T18:48:00.602Z,41.47
2018-03-22T18:50:26.528Z,41.27
2018-03-22T18:52:52.378Z,40.03
2018-03-22T18:55:18.228Z,41.93
2018-03-22T18:57:44.137Z,42.77
2018-03-22T19:00:10.386Z,42.97
2018-03-22T19:02:36.268Z,40.47
2018-03-22T19:05:02.181Z,41.97
2018-03-22T19:07:28.038Z,41.80
2018-03-22T19:09:53.890Z,42.93
2018-03-22T19:12:19.921Z,42.17
2018-03-22T19:14:45.799Z,42.30
2018-03-22T19:17:11.644Z,41.90
2018-03-22T19:19:37.827Z,41.30
2018-03-22T19:22:03.707Z,38.40
2018-03-22T19:24:29.656Z,41.43
2018-03-22T19:26:55.548Z,40.23
2018-03-22T19:29:21.413Z,41.67
2018-03-22T19:31:47.297Z,42.57
2018-03-22T19:34:13.168Z,41.17
2018-03-22T19:36:39.118Z,41.67
2018-03-22T19:39:04.990Z,39.67
2018-03-22T19:41:30.900Z,39.63
2018-03-22T19:43:56.741Z,40.63
2018-03-22T19:46:22.626Z,41.37
2018-03-22T19:48:48.600Z,40.97
2018-03-22T19:51:14.551Z,41.93
2018-03-22T19:53:40.395Z,40.60
2018-03-22T19:56:06.291Z,40.63
2018-03-22T19:58:32.276Z,39.17
2018-03-22T20:00:58.225Z,41.57
2018-03-22T20:03:24.128Z,41.97
2018-03-22T20:05:49.989Z,40.50
2018-03-22T20:08:15.837Z,41.67
2018-03-22T20:10:42.229Z,39.83
2018-03-22T20:13:08.273Z,42.90
2018-03-22T20:15:34.137Z,38.47
2018-03-22T20:18:00.490Z,39.60
2018-03-22T20:20:26.359Z,39.80
2018-03-22T20:22:52.204Z,42.83
2018-03-22T20:25:18.340Z,42.80
2018-03-22T20:27:44.204Z,42.00
2018-03-22T20:30:10.049Z,42.30
2018-03-22T20:32:35.970Z,41.80
2018-03-22T20:35:01.833Z,39.87
2018-03-22T20:37:27.849Z,41.73
2018-03-22T20:39:53.766Z,43.83
2018-03-22T20:42:19.621Z,41.60
2018-03-22T20:44:45.492Z,41.73
2018-03-22T20:47:11.688Z,43.67
2018-03-22T20:49:37.758Z,43.93
2018-03-22T20:52:03.617Z,44.20
2018-03-22T20:54:30.162Z,43.80
2018-03-22T20:56:56.032Z,44.13
2018-03-22T20:59:21.929Z,44.60
2018-03-22T21:01:47.970Z,43.03
2018-03-22T21:04:13.828Z,45.63
2018-03-22T21:06:39.688Z,47.73
2018-03-22T21:09:05.601Z,46.10
2018-03-22T21:11:31.442Z,48.23
2018-03-22T21:13:58.009Z,48.40
2018-03-22T21:16:23.922Z,47.30
2018-03-22T21:18:49.769Z,49.60
2018-03-22T21:21:15.630Z,49.97
2018-03-22T21:23:41.545Z,52.17
2018-03-22T21:26:07.574Z,48.10
2018-03-22T21:28:33.441Z,49.40
2018-03-22T21:30:59.320Z,48.50
2018-03-22T21:33:25.173Z,50.10
2018-03-22T21:35:51.024Z,48.00
2018-03-22T21:38:17.069Z,50.57
2018-03-22T21:40:42.924Z,46.47
2018-03-22T21:43:08.772Z,47.00
2018-03-22T21:45:34.673Z,50.57
2018-03-22T21:48:00.525Z,49.77
2018-03-22T21:50:39.245Z,49.67
2018-03-22T21:53:05.105Z,50.23
2018-03-22T21:55:30.961Z,50.13
2018-03-22T21:57:56.844Z,44.10
2018-03-22T22:00:22.741Z,46.43
2018-03-22T22:02:48.749Z,44.53
2018-03-22T22:05:14.657Z,45.87
2018-03-22T22:07:40.522Z,46.23
2018-03-22T22:10:06.392Z,46.90
2018-03-22T22:12:32.313Z,48.27
2018-03-22T22:14:58.314Z,46.17
2018-03-22T22:17:24.174Z,49.23
2018-03-22T22:19:50.078Z,45.77
2018-03-22T22:22:15.932Z,46.30
2018-03-22T22:24:41.789Z,48.97
2018-03-22T22:27:07.821Z,47.47
2018-03-22T22:29:33.690Z,52.10
2018-03-22T22:31:59.573Z,51.13
2018-03-22T22:34:25.485Z,37.97
2018-03-22T22:36:51.333Z,53.57
2018-03-22T22:39:17.341Z,50.73
2018-03-22T22:41:43.242Z,44.13
2018-03-22T22:44:09.098Z,48.17
2018-03-22T22:46:35.096Z,43.97
2018-03-22T22:49:01.010Z,44.13
2018-03-22T22:51:27.010Z,45.13
2018-03-22T22:53:52.867Z,41.57
2018-03-22T22:56:18.770Z,52.20
2018-03-22T22:58:44.629Z,46.23
2018-03-22T23:01:10.484Z,42.40
2018-03-22T23:03:36.528Z,44.90
2018-03-22T23:06:02.394Z,41.67
2018-03-22T23:08:28.260Z,45.20
2018-03-22T23:10:54.136Z,48.13
2018-03-22T23:13:19.975Z,42.80
2018-03-22T23:15:45.978Z,46.23
2018-03-22T23:18:11.897Z,46.60
2018-03-22T23:20:37.749Z,46.43
2018-03-22T23:23:03.606Z,45.40
2018-03-22T23:25:29.792Z,47.07
2018-03-22T23:27:55.776Z,50.37
2018-03-22T23:30:21.617Z,45.57
2018-03-22T23:32:47.515Z,49.27
2018-03-22T23:35:13.390Z,46.63
2018-03-22T23:37:39.260Z,45.83
2018-03-22T23:40:05.356Z,44.60
2018-03-22T23:42:31.208Z,49.07
2018-03-22T23:44:57.056Z,41.60
2018-03-22T23:47:23.872Z,41.90
2018-03-22T23:49:50.185Z,46.30
2018-03-22T23:52:16.455Z,42.10
2018-03-22T23:54:42.559Z,38.73
2018-03-22T23:57:08.545Z,39.23
2018-03-22T23:59:34.868Z,43.47
